Time;durP1;ratioP1;P1;durP2;ratioP2;P2;SDS_P1;SDS_P2;PMS_P1;PMS_P2;Temp;Humidity;BMP_temperature;BMP_pressure;BME280_temperature;BME280_humidity;BME280_pressure;Samples;Min_cycle;Max_cycle;Signal;HPM_P1;HPM_P2
2021/01/05 00:00:21;;;;;;;58.20;23.02;;;;;;;0.09;100.00;101107.44;4992676;28;20050;-79
2021/01/05 00:02:48;;;;;;;68.47;26.48;;;;;;;0.05;100.00;101110.94;4981585;28;20061;-79
2021/01/05 00:05:14;;;;;;;62.53;22.40;;;;;;;0.11;100.00;101114.34;5008013;28;20056;-80
2021/01/05 00:07:42;;;;;;;59.80;22.83;;;;;;;0.08;100.00;101110.91;5012546;28;20064;-81
2021/01/05 00:10:09;;;;;;;66.10;23.48;;;;;;;0.07;100.00;101114.38;5012206;28;20060;-81
2021/01/05 00:12:36;;;;;;;53.13;22.30;;;;;;;0.13;100.00;101116.91;5016121;28;20573;-80
2021/01/05 00:15:05;;;;;;;62.22;22.20;;;;;;;0.02;100.00;101117.00;4990671;28;20080;-80
2021/01/05 00:17:31;;;;;;;64.90;23.77;;;;;;;-0.02;100.00;101103.22;5008640;28;20072;-79
2021/01/05 00:20:04;;;;;;;57.35;22.50;;;;;;;0.03;100.00;101113.53;5007802;28;20057;-81
2021/01/05 00:22:31;;;;;;;56.78;21.48;;;;;;;-0.04;100.00;101109.28;5009470;28;20076;-78
2021/01/05 00:24:57;;;;;;;50.30;21.02;;;;;;;-0.04;100.00;101110.16;5031334;28;20060;-77
2021/01/05 00:27:24;;;;;;;51.30;20.98;;;;;;;-0.01;100.00;101117.88;5016620;28;20049;-79
2021/01/05 00:29:51;;;;;;;57.45;21.63;;;;;;;-0.04;100.00;101117.91;5013041;28;20076;-77
2021/01/05 00:32:24;;;;;;;53.00;22.25;;;;;;;0.09;100.00;101117.78;5013227;28;20160;-77
2021/01/05 00:34:52;;;;;;;49.13;21.38;;;;;;;0.04;100.00;101124.75;4988782;28;20719;-78
2021/01/05 00:37:19;;;;;;;49.60;20.17;;;;;;;0.03;100.00;101130.78;5032022;28;20110;-79
2021/01/05 00:39:46;;;;;;;51.10;21.83;;;;;;;0.14;100.00;101129.00;4996149;28;20067;-81
2021/01/05 00:42:13;;;;;;;47.95;20.17;;;;;;;0.11;100.00;101119.50;5019139;28;20037;-77
2021/01/05 00:44:40;;;;;;;54.42;21.30;;;;;;;0.03;100.00;101129.06;4994908;28;20420;-80
2021/01/05 00:47:08;;;;;;;50.92;21.45;;;;;;;0.03;100.00;101131.66;5011943;28;20124;-79
2021/01/05 00:49:35;;;;;;;50.45;20.13;;;;;;;0.21;100.00;101125.47;5004683;28;20034;-80
2021/01/05 00:52:01;;;;;;;45.72;19.52;;;;;;;0.10;100.00;101132.47;5003004;28;20123;-80
2021/01/05 00:54:31;;;;;;;46.22;21.70;;;;;;;-0.01;100.00;101115.28;5000569;28;21389;-78
2021/01/05 00:57:03;;;;;;;47.58;21.17;;;;;;;0.14;100.00;101122.09;5003120;28;20425;-80
2021/01/05 00:59:31;;;;;;;40.65;18.05;;;;;;;0.12;100.00;101126.41;5026385;28;20199;-80
2021/01/05 01:01:58;;;;;;;48.65;21.90;;;;;;;0.06;100.00;101125.59;5006420;28;20049;-78
2021/01/05 01:04:25;;;;;;;47.47;20.27;;;;;;;0.02;100.00;101126.50;4996110;28;20153;-80
2021/01/05 01:06:52;;;;;;;45.67;21.17;;;;;;;-0.01;100.00;101125.63;5019139;28;20058;-78
2021/01/05 01:09:19;;;;;;;47.20;20.77;;;;;;;0.00;100.00;101118.75;5021645;28;20057;-78
2021/01/05 01:12:07;;;;;;;50.83;21.65;;;;;;;0.04;100.00;101122.16;4986638;28;20420;-77
2021/01/05 01:14:34;;;;;;;50.17;21.40;;;;;;;-0.04;100.00;101114.47;5002707;28;20091;-78
2021/01/05 01:17:01;;;;;;;50.22;23.27;;;;;;;-0.02;100.00;101118.75;5015192;28;20045;-81
2021/01/05 01:19:27;;;;;;;52.63;21.75;;;;;;;0.01;100.00;101125.63;5011111;28;20049;-78
2021/01/05 01:21:55;;;;;;;53.00;23.10;;;;;;;0.01;100.00;101114.44;4993506;28;20176;-79
2021/01/05 01:24:24;;;;;;;54.00;22.80;;;;;;;-0.02;100.00;101118.75;5020194;28;20085;-78
2021/01/05 01:26:51;;;;;;;54.38;22.92;;;;;;;0.04;100.00;101122.16;5019141;28;20148;-79
2021/01/05 01:29:20;;;;;;;52.65;22.85;;;;;;;0.10;100.00;101119.53;4999366;28;20508;-78
2021/01/05 01:31:47;;;;;;;50.83;22.25;;;;;;;0.02;100.00;101116.13;5004283;28;20137;-80
2021/01/05 01:34:16;;;;;;;52.00;22.13;;;;;;;-0.08;100.00;101128.28;5005136;28;20045;-80
2021/01/05 01:36:43;;;;;;;57.65;22.85;;;;;;;-0.09;100.00;101137.78;5010616;28;20048;-79
2021/01/05 01:39:09;;;;;;;62.28;23.65;;;;;;;0.02;100.00;101145.47;5017607;28;20143;-79
2021/01/05 01:41:36;;;;;;;50.50;22.73;;;;;;;0.04;100.00;101142.84;5004004;28;20045;-77
2021/01/05 01:44:03;;;;;;;54.95;25.30;;;;;;;0.03;100.00;101143.72;5000219;28;20055;-79
2021/01/05 01:46:33;;;;;;;58.78;22.95;;;;;;;0.06;100.00;101139.41;4994253;28;20069;-80
2021/01/05 01:49:01;;;;;;;55.03;24.77;;;;;;;-0.03;100.00;101136.88;4975917;28;20052;-77
2021/01/05 01:51:31;;;;;;;60.95;25.23;;;;;;;-0.05;100.00;101136.00;5005418;28;20285;-80
2021/01/05 01:54:31;;;;;;;52.67;23.92;;;;;;;-0.04;100.00;101146.38;5004704;28;20501;-78
2021/01/05 01:57:11;;;;;;;57.25;23.70;;;;;;;0.02;100.00;101148.06;5009893;28;20041;-78
2021/01/05 01:59:40;;;;;;;63.83;23.80;;;;;;;-0.04;100.00;101140.34;5001606;28;20072;-80
2021/01/05 02:02:17;;;;;;;56.70;24.48;;;;;;;0.03;100.00;101134.22;5005756;28;20045;-78
2021/01/05 02:05:00;;;;;;;60.05;22.95;;;;;;;0.02;100.00;101134.25;5007995;28;20072;-81
2021/01/05 02:07:53;;;;;;;55.22;22.88;;;;;;;0.00;100.00;101131.69;5026041;28;20041;-78
2021/01/05 02:10:32;;;;;;;45.63;21.77;;;;;;;-0.07;100.00;101127.41;5003789;28;20649;-80
2021/01/05 02:13:25;;;;;;;57.15;22.98;;;;;;;-0.03;100.00;101123.94;5003836;28;20049;-80
2021/01/05 02:16:10;;;;;;;62.75;27.10;;;;;;;0.06;100.00;101121.28;5009770;28;20103;-78
2021/01/05 02:18:44;;;;;;;63.45;23.85;;;;;;;-0.03;100.00;101118.75;4978333;28;20668;-81
2021/01/05 02:21:24;;;;;;;53.97;23.65;;;;;;;-0.01;100.00;101124.78;5008746;28;20137;-81
2021/01/05 02:24:15;;;;;;;50.22;22.55;;;;;;;-0.06;100.00;101121.38;5007922;28;20041;-80
2021/01/05 02:27:02;;;;;;;57.95;24.27;;;;;;;-0.07;100.00;101122.25;5001977;28;20076;-80
2021/01/05 02:29:37;;;;;;;51.03;23.25;;;;;;;0.02;100.00;101134.25;5003427;28;20053;-78
2021/01/05 02:32:16;;;;;;;50.10;21.02;;;;;;;0.03;100.00;101129.06;4988497;28;20144;-81
2021/01/05 02:35:02;;;;;;;51.90;22.65;;;;;;;0.02;100.00;101117.00;4975053;28;20049;-79
2021/01/05 02:37:54;;;;;;;52.97;23.08;;;;;;;-0.02;100.00;101110.97;5025888;28;20552;-78
2021/01/05 02:40:28;;;;;;;51.60;22.67;;;;;;;0.09;100.00;101115.19;5015425;28;20457;-78
2021/01/05 02:43:08;;;;;;;46.05;21.00;;;;;;;0.09;100.00;101117.78;5019129;28;20053;-81
2021/01/05 02:45:39;;;;;;;48.50;22.00;;;;;;;0.13;100.00;101111.72;5008724;28;20056;-80
2021/01/05 02:48:23;;;;;;;48.05;20.73;;;;;;;0.03;100.00;101113.53;5004754;28;20540;-81
2021/01/05 02:51:08;;;;;;;49.75;22.73;;;;;;;0.02;100.00;101113.56;4994111;28;20049;-79
2021/01/05 02:53:57;;;;;;;52.93;22.17;;;;;;;-0.02;100.00;101131.69;4988253;28;20046;-79
2021/01/05 02:56:39;;;;;;;42.85;20.60;;;;;;;-0.05;100.00;101117.91;4998921;28;20576;-80
2021/01/05 02:59:19;;;;;;;53.33;22.92;;;;;;;0.04;100.00;101106.63;5003293;28;20384;-80
2021/01/05 03:02:06;;;;;;;49.55;20.75;;;;;;;0.09;100.00;101115.19;5004827;28;20060;-78
2021/01/05 03:04:33;;;;;;;48.10;21.33;;;;;;;-0.04;100.00;101109.28;5001762;28;20041;-80
2021/01/05 03:07:05;;;;;;;47.22;20.85;;;;;;;0.04;100.00;101111.78;4993626;28;20026;-79
2021/01/05 03:09:49;;;;;;;49.65;22.15;;;;;;;0.09;100.00;101112.63;5009142;28;20124;-80
2021/01/05 03:12:26;;;;;;;45.25;21.95;;;;;;;0.12;100.00;101110.00;5008582;28;20042;-80
2021/01/05 03:15:17;;;;;;;44.55;21.98;;;;;;;0.08;100.00;101109.16;5017239;28;20058;-80
2021/01/05 03:17:49;;;;;;;50.15;21.42;;;;;;;0.12;100.00;101102.25;4989110;28;20073;-79
2021/01/05 03:20:25;;;;;;;40.97;19.50;;;;;;;0.05;100.00;101100.59;5008679;28;20057;-79
2021/01/05 03:22:56;;;;;;;49.95;21.05;;;;;;;0.02;100.00;101104.06;5002099;28;20045;-78
2021/01/05 03:25:24;;;;;;;38.78;19.95;;;;;;;0.08;100.00;101097.97;4972921;28;20052;-76
2021/01/05 03:27:53;;;;;;;42.47;21.45;;;;;;;0.09;100.00;101099.66;4995336;28;20115;-81
2021/01/05 03:30:29;;;;;;;41.63;21.13;;;;;;;0.15;100.00;101097.91;5016289;28;20073;-80
2021/01/05 03:32:56;;;;;;;46.72;21.02;;;;;;;0.19;100.00;101096.16;5021228;28;20493;-79
2021/01/05 03:35:22;;;;;;;41.15;19.95;;;;;;;0.11;100.00;101093.63;5010379;28;20099;-80
2021/01/05 03:37:49;;;;;;;42.45;20.88;;;;;;;0.02;100.00;101095.44;5022842;28;20164;-80
2021/01/05 03:40:17;;;;;;;39.58;19.88;;;;;;;0.11;100.00;101091.03;5012917;28;20046;-79
2021/01/05 03:42:44;;;;;;;44.22;20.77;;;;;;;0.20;100.00;101093.53;4989870;28;20088;-81
2021/01/05 03:45:19;;;;;;;42.90;19.33;;;;;;;0.11;100.00;101088.44;5022382;28;20052;-78
2021/01/05 03:47:46;;;;;;;35.83;18.02;;;;;;;0.17;100.00;101093.56;4987961;28;20092;-78
2021/01/05 03:50:15;;;;;;;41.58;18.58;;;;;;;0.09;100.00;101090.19;5006238;28;20094;-80
2021/01/05 03:52:42;;;;;;;43.15;20.35;;;;;;;0.12;100.00;101090.16;5003365;28;20077;-79
2021/01/05 03:55:09;;;;;;;36.70;18.33;;;;;;;0.09;100.00;101100.56;5006828;28;20653;-79
2021/01/05 03:57:36;;;;;;;41.78;18.80;;;;;;;0.14;100.00;101101.38;4988876;28;20050;-79
2021/01/05 04:00:08;;;;;;;45.67;21.08;;;;;;;0.03;100.00;101095.41;5005981;28;20057;-76
2021/01/05 04:02:35;;;;;;;40.35;19.33;;;;;;;0.10;100.00;101091.06;4991859;28;20045;-79
2021/01/05 04:05:02;;;;;;;39.65;19.20;;;;;;;0.14;100.00;101093.59;5010605;28;20053;-79
2021/01/05 04:07:29;;;;;;;39.67;17.77;;;;;;;0.09;100.00;101091.91;4991993;28;20057;-78
2021/01/05 04:09:56;;;;;;;42.88;18.80;;;;;;;0.10;100.00;101091.91;5016634;28;20063;-77
2021/01/05 04:12:23;;;;;;;40.70;19.42;;;;;;;0.12;100.00;101090.16;4993346;28;20041;-79
2021/01/05 04:14:50;;;;;;;45.28;20.20;;;;;;;0.10;100.00;101091.91;4999166;28;20107;-78
2021/01/05 04:17:18;;;;;;;41.95;19.52;;;;;;;0.05;100.00;101096.28;4986659;28;20514;-79
2021/01/05 04:19:45;;;;;;;46.50;20.80;;;;;;;-0.02;100.00;101087.69;5016968;28;20481;-79
2021/01/05 04:22:12;;;;;;;41.33;18.05;;;;;;;0.09;100.00;101090.19;4989276;28;20050;-80
2021/01/05 04:24:39;;;;;;;41.35;19.42;;;;;;;0.12;100.00;101099.66;5021950;28;20088;-80
2021/01/05 04:27:05;;;;;;;45.50;20.85;;;;;;;0.10;100.00;101102.28;5008312;28;20063;-79
2021/01/05 04:29:32;;;;;;;39.33;19.02;;;;;;;0.07;100.00;101099.69;4984036;28;20493;-79
2021/01/05 04:31:59;;;;;;;40.88;18.67;;;;;;;0.10;100.00;101091.06;5017663;28;20057;-80
2021/01/05 04:34:26;;;;;;;39.38;18.25;;;;;;;0.00;100.00;101098.03;5003143;28;20042;-78
2021/01/05 04:36:53;;;;;;;35.22;17.42;;;;;;;0.01;100.00;101099.75;5023014;28;20064;-81
2021/01/05 04:39:20;;;;;;;38.08;18.70;;;;;;;0.08;100.00;101101.41;5005484;28;20065;-80
2021/01/05 04:42:03;;;;;;;40.58;17.90;;;;;;;0.00;100.00;101100.63;5020430;28;20055;-79
2021/01/05 04:44:48;;;;;;;36.50;18.02;;;;;;;-0.03;100.00;101096.31;5020796;28;20549;-78
2021/01/05 04:47:53;;;;;;;38.92;18.02;;;;;;;0.09;100.00;101099.66;5008601;28;20044;-76
2021/01/05 04:50:24;;;;;;;39.72;18.05;;;;;;;0.05;100.00;101098.00;4980852;28;20041;-81
2021/01/05 04:52:57;;;;;;;35.10;18.52;;;;;;;0.11;100.00;101103.97;5001256;28;20054;-81
2021/01/05 04:55:43;;;;;;;32.22;17.88;;;;;;;0.03;100.00;101095.41;5008184;28;20045;-80
2021/01/05 04:58:44;;;;;;;28.02;15.43;;;;;;;0.01;100.00;101093.72;4981415;28;20046;-77
2021/01/05 05:01:22;;;;;;;30.27;15.73;;;;;;;0.02;100.00;101098.88;5014114;28;20081;-81
2021/01/05 05:03:55;;;;;;;30.48;16.42;;;;;;;0.04;100.00;101101.44;5011453;28;20058;-79
2021/01/05 05:06:42;;;;;;;37.92;17.73;;;;;;;0.07;100.00;101098.84;5003084;28;20045;-78
2021/01/05 05:09:33;;;;;;;31.60;15.20;;;;;;;0.15;100.00;101095.31;4999855;28;20052;-81
2021/01/05 05:12:41;;;;;;;26.48;14.93;;;;;;;0.07;100.00;101098.84;4989458;28;20053;-81
2021/01/05 05:15:27;;;;;;;;;;;;;;;0.12;100.00;101090.16;4989936;28;20539;-77
2021/01/05 05:18:21;;;;;;;30.38;14.52;;;;;;;0.13;100.00;101091.00;5025846;28;20020;-80
2021/01/05 05:21:26;;;;;;;27.75;15.05;;;;;;;0.14;100.00;101090.16;5013700;28;20045;-78
2021/01/05 05:23:58;;;;;;;31.70;16.25;;;;;;;0.16;100.00;101091.84;4986421;28;20275;-79
2021/01/05 05:26:31;;;;;;;29.90;15.88;;;;;;;0.24;100.00;101089.19;5027072;28;20049;-81
2021/01/05 05:29:04;;;;;;;31.30;16.50;;;;;;;0.25;100.00;101088.31;5005911;28;20079;-80
2021/01/05 05:31:32;;;;;;;29.42;15.65;;;;;;;0.28;100.00;101084.88;5013646;28;20057;-81
2021/01/05 05:34:05;;;;;;;27.67;16.50;;;;;;;0.27;100.00;101093.47;5012653;28;20037;-78
2021/01/05 05:36:47;;;;;;;32.10;15.95;;;;;;;0.29;99.78;101089.16;4987382;28;20053;-78
2021/01/05 05:39:24;;;;;;;33.47;16.33;;;;;;;0.33;99.08;101088.25;5020178;28;20137;-78
2021/01/05 05:42:15;;;;;;;26.85;14.75;;;;;;;0.22;100.00;101094.38;5016062;28;20377;-81
2021/01/05 05:44:47;;;;;;;32.35;16.75;;;;;;;0.21;100.00;101092.66;4984253;28;20042;-78
2021/01/05 05:47:23;;;;;;;28.67;15.23;;;;;;;0.22;99.45;101084.00;5005511;28;20063;-78
2021/01/05 05:50:09;;;;;;;26.55;14.82;;;;;;;0.19;99.97;101084.06;5000413;28;20539;-79
2021/01/05 05:52:44;;;;;;;24.98;13.88;;;;;;;0.24;99.86;101086.59;4991298;28;20045;-78
2021/01/05 05:55:21;;;;;;;27.95;14.98;;;;;;;0.21;99.28;101086.63;5009567;28;20041;-78
2021/01/05 05:57:48;;;;;;;25.58;13.48;;;;;;;0.29;98.85;101083.97;5006169;28;20053;-78
2021/01/05 06:00:15;;;;;;;31.63;14.52;;;;;;;0.24;98.78;101090.06;5004457;28;20068;-80
2021/01/05 06:02:42;;;;;;;22.48;12.85;;;;;;;0.29;99.05;101091.75;5018101;28;20555;-78
2021/01/05 06:05:25;;;;;;;25.98;14.48;;;;;;;0.31;99.23;101096.03;4989546;28;20045;-77
2021/01/05 06:07:52;;;;;;;29.70;14.93;;;;;;;0.26;99.16;101092.63;4991498;28;20268;-79
2021/01/05 06:10:18;;;;;;;25.67;13.32;;;;;;;0.31;99.05;101102.94;4988779;28;20092;-77
2021/01/05 06:12:45;;;;;;;25.55;13.80;;;;;;;0.41;97.86;101110.63;4988825;28;20049;-79
2021/01/05 06:15:12;;;;;;;25.08;13.52;;;;;;;0.31;98.19;101101.19;5002734;28;20124;-80
2021/01/05 06:17:39;;;;;;;23.33;13.25;;;;;;;0.25;99.14;101096.94;4991914;28;20210;-78
2021/01/05 06:20:08;;;;;;;24.33;14.48;;;;;;;0.33;98.47;101103.78;5013639;28;20054;-79
2021/01/05 06:22:34;;;;;;;24.38;13.77;;;;;;;0.35;98.39;101104.63;5025626;28;20416;-79
2021/01/05 06:25:04;;;;;;;29.80;15.27;;;;;;;0.30;98.78;101102.09;5007333;28;21601;-79
2021/01/05 06:27:31;;;;;;;27.92;14.35;;;;;;;0.22;99.57;101096.97;4990293;28;20116;-78
2021/01/05 06:29:58;;;;;;;28.05;14.38;;;;;;;0.28;99.58;101103.84;5013811;28;20069;-79
2021/01/05 06:32:28;;;;;;;27.90;15.35;;;;;;;0.27;99.63;101096.94;5031798;28;20057;-81
2021/01/05 06:34:55;;;;;;;29.05;15.18;;;;;;;0.30;99.45;101103.81;5032816;28;20044;-83
2021/01/05 06:37:35;;;;;;;31.67;16.05;;;;;;;0.29;99.78;101099.50;5028136;28;20041;-80
2021/01/05 06:40:05;;;;;;;31.92;15.30;;;;;;;0.29;99.42;101105.56;5008387;28;20041;-79
2021/01/05 06:42:32;;;;;;;32.60;15.45;;;;;;;0.32;99.43;101100.34;5006014;28;20546;-78
2021/01/05 06:44:59;;;;;;;35.67;16.58;;;;;;;0.38;99.26;101089.94;5019462;28;20575;-80
2021/01/05 06:47:32;;;;;;;29.17;15.30;;;;;;;0.24;100.00;101094.38;5002588;28;20041;-77
2021/01/05 06:50:04;;;;;;;39.15;18.63;;;;;;;0.25;100.00;101088.31;5010387;28;20080;-81
2021/01/05 06:52:34;;;;;;;35.95;18.75;;;;;;;0.18;100.00;101090.13;5019062;28;20563;-83
2021/01/05 06:55:02;;;;;;;38.97;19.20;;;;;;;0.15;100.00;101094.47;4989721;28;20115;-80
2021/01/05 06:57:29;;;;;;;34.55;15.98;;;;;;;0.13;100.00;101094.44;5018791;28;20053;-82
2021/01/05 07:00:04;;;;;;;41.50;18.90;;;;;;;0.23;100.00;101095.25;5002878;28;20136;-82
2021/01/05 07:02:33;;;;;;;41.90;18.95;;;;;;;0.21;100.00;101097.84;5001978;28;20060;-82
2021/01/05 07:05:01;;;;;;;41.80;18.27;;;;;;;0.20;100.00;101103.91;5010191;28;20037;-81
2021/01/05 07:07:28;;;;;;;43.15;18.48;;;;;;;0.20;100.00;101105.63;5000647;28;20099;-83
2021/01/05 07:09:55;;;;;;;44.22;19.75;;;;;;;0.23;100.00;101103.03;5013240;28;20050;-81
2021/01/05 07:12:25;;;;;;;49.65;20.55;;;;;;;0.22;100.00;101098.69;4991708;28;20129;-81
2021/01/05 07:14:53;;;;;;;45.22;19.63;;;;;;;0.18;100.00;101104.78;5001148;28;20137;-84
2021/01/05 07:17:22;;;;;;;41.75;20.20;;;;;;;0.20;100.00;101103.91;4983013;28;20046;-84
2021/01/05 07:19:50;;;;;;;50.20;20.40;;;;;;;0.19;100.00;101109.09;4997519;28;20088;-82
2021/01/05 07:22:18;;;;;;;45.17;20.02;;;;;;;0.17;100.00;101105.66;4985815;28;20093;-82
2021/01/05 07:24:48;;;;;;;42.70;19.80;;;;;;;0.18;100.00;101110.84;4983704;28;20055;-81
2021/01/05 07:27:16;;;;;;;48.42;21.48;;;;;;;0.16;100.00;101107.38;5014714;28;20179;-81
2021/01/05 07:29:43;;;;;;;47.30;21.17;;;;;;;0.22;100.00;101111.66;5000492;28;20050;-83
2021/01/05 07:32:11;;;;;;;54.25;21.63;;;;;;;0.21;100.00;101117.69;5011449;28;20045;-82
2021/01/05 07:34:37;;;;;;;45.35;21.90;;;;;;;0.16;100.00;101104.78;4981193;28;20195;-83
2021/01/05 07:37:20;;;;;;;50.28;21.38;;;;;;;0.16;100.00;101109.97;4977927;28;20527;-82
2021/01/05 07:39:46;;;;;;;50.22;20.13;;;;;;;0.31;100.00;101103.78;5003914;28;20052;-83
2021/01/05 07:42:28;;;;;;;44.08;19.95;;;;;;;0.23;100.00;101106.47;4991473;28;20046;-83
2021/01/05 07:44:57;;;;;;;48.40;22.23;;;;;;;0.27;100.00;101111.59;4991885;28;20121;-84
2021/01/05 07:47:32;;;;;;;49.47;21.23;;;;;;;0.30;100.00;101112.44;5005361;28;20042;-83
2021/01/05 07:49:59;;;;;;;55.85;23.15;;;;;;;0.41;100.00;101114.94;4979650;28;20061;-83
2021/01/05 07:52:40;;;;;;;47.30;22.83;;;;;;;0.42;100.00;101117.50;4998922;28;20041;-83
2021/01/05 07:55:15;;;;;;;50.25;22.10;;;;;;;0.48;100.00;101119.19;4989973;28;20076;-82
2021/01/05 07:57:42;;;;;;;40.07;20.20;;;;;;;0.44;100.00;101118.34;5002684;28;20069;-84
2021/01/05 08:00:24;;;;;;;39.72;20.05;;;;;;;0.41;100.00;101113.22;5015757;28;20072;-82
2021/01/05 08:02:54;;;;;;;45.08;20.33;;;;;;;0.43;100.00;101119.22;5027785;28;20050;-83
2021/01/05 08:05:24;;;;;;;39.38;18.20;;;;;;;0.40;100.00;101113.22;4987564;28;20053;-82
2021/01/05 08:07:55;;;;;;;38.25;18.67;;;;;;;0.45;100.00;101122.69;5001926;28;20153;-82
2021/01/05 08:10:44;;;;;;;44.72;20.45;;;;;;;0.58;100.00;101114.75;4986325;28;20491;-83
2021/01/05 08:13:16;;;;;;;41.95;20.88;;;;;;;0.57;99.51;101113.06;5006223;28;20068;-83
2021/01/05 08:15:42;;;;;;;50.30;22.60;;;;;;;0.43;100.00;101119.22;5006962;28;20086;-81
2021/01/05 08:18:13;;;;;;;47.72;21.77;;;;;;;0.40;100.00;101114.06;4998604;28;20419;-83
2021/01/05 08:20:46;;;;;;;51.22;22.60;;;;;;;0.52;100.00;101113.09;5006994;28;20060;-83
2021/01/05 08:23:21;;;;;;;49.33;20.58;;;;;;;0.53;100.00;101120.00;4987465;28;20561;-83
2021/01/05 08:25:52;;;;;;;50.25;22.13;;;;;;;0.42;100.00;101124.44;4998827;28;20049;-83
2021/01/05 08:28:25;;;;;;;51.53;21.27;;;;;;;0.40;100.00;101126.16;5008138;28;20076;-80
2021/01/05 08:30:57;;;;;;;51.03;22.10;;;;;;;0.39;100.00;101122.72;4997710;28;20950;-82
2021/01/05 08:33:26;;;;;;;56.58;22.38;;;;;;;0.47;100.00;101127.84;4990879;28;20061;-82
2021/01/05 08:35:58;;;;;;;52.78;23.40;;;;;;;0.50;100.00;101130.41;5010957;28;20063;-82
2021/01/05 08:38:25;;;;;;;54.80;21.88;;;;;;;0.52;100.00;101136.41;4973627;28;20156;-84
2021/01/05 08:40:52;;;;;;;51.25;20.67;;;;;;;0.52;100.00;101128.66;5009165;28;20049;-82
2021/01/05 08:43:19;;;;;;;56.45;22.45;;;;;;;0.49;100.00;101131.25;4974906;28;20054;-81
2021/01/05 08:45:46;;;;;;;52.55;23.25;;;;;;;0.51;100.00;101134.72;4974661;28;20076;-84
2021/01/05 08:48:13;;;;;;;55.28;23.08;;;;;;;0.43;100.00;101134.78;4989963;28;20046;-82
2021/01/05 08:50:40;;;;;;;52.30;22.67;;;;;;;0.50;100.00;101133.84;4990930;28;20309;-80
2021/01/05 08:53:09;;;;;;;58.78;24.30;;;;;;;0.57;100.00;101133.78;4969556;28;20116;-82
2021/01/05 08:55:40;;;;;;;47.78;22.23;;;;;;;0.65;100.00;101124.22;5002272;28;20053;-79
2021/01/05 08:58:08;;;;;;;47.47;21.83;;;;;;;0.71;100.00;101137.09;5002566;28;20133;-82
2021/01/05 09:00:34;;;;;;;47.63;23.50;;;;;;;0.68;99.97;101129.38;4993648;28;20547;-82
2021/01/05 09:03:02;;;;;;;48.67;22.73;;;;;;;0.63;100.00;101131.13;4989950;28;20050;-82
2021/01/05 09:05:44;;;;;;;46.65;20.23;;;;;;;0.67;100.00;101130.22;4989091;28;20057;-81
2021/01/05 09:08:12;;;;;;;48.50;20.65;;;;;;;0.65;99.31;101122.47;4993292;28;20064;-80
2021/01/05 09:10:38;;;;;;;48.58;21.67;;;;;;;0.66;99.72;101124.19;4995443;28;20050;-83
2021/01/05 09:13:11;;;;;;;45.13;20.38;;;;;;;0.71;99.66;101127.56;4994446;28;20037;-82
2021/01/05 09:15:39;;;;;;;45.40;19.75;;;;;;;0.78;99.21;101128.38;5012059;28;20132;-81
2021/01/05 09:18:09;;;;;;;41.70;19.35;;;;;;;0.89;99.03;101126.53;4998378;28;20073;-82
2021/01/05 09:20:42;;;;;;;40.97;20.05;;;;;;;0.88;99.35;101113.59;4972180;28;20184;-81
2021/01/05 09:23:09;;;;;;;42.60;20.67;;;;;;;0.91;97.96;101111.81;5007497;28;20057;-81
2021/01/05 09:25:40;;;;;;;41.42;18.95;;;;;;;0.87;98.37;101120.50;5003086;28;20064;-81
2021/01/05 09:28:07;;;;;;;38.92;20.02;;;;;;;0.71;98.86;101118.94;4971301;28;20067;-81
2021/01/05 09:30:34;;;;;;;47.55;21.27;;;;;;;0.82;98.66;101116.25;5003177;28;20085;-82
2021/01/05 09:33:01;;;;;;;38.80;18.77;;;;;;;0.77;98.48;101113.72;4998474;28;20545;-79
2021/01/05 09:35:27;;;;;;;33.13;17.95;;;;;;;0.79;98.32;101114.53;4969859;28;20045;-80
2021/01/05 09:37:54;;;;;;;34.25;18.35;;;;;;;0.76;98.66;101110.25;4961708;28;20060;-81
2021/01/05 09:40:22;;;;;;;38.42;19.50;;;;;;;0.82;98.43;101114.53;4965745;28;20054;-83
2021/01/05 09:42:49;;;;;;;40.35;19.77;;;;;;;0.75;98.45;101111.13;5007490;28;20058;-81
2021/01/05 09:45:16;;;;;;;34.42;19.08;;;;;;;0.85;98.37;101118.81;5015588;28;21201;-81
2021/01/05 09:47:44;;;;;;;43.95;20.48;;;;;;;0.86;98.86;101113.63;4961853;28;20048;-82
2021/01/05 09:50:11;;;;;;;33.80;17.88;;;;;;;0.86;98.61;101112.75;5012404;28;20806;-82
2021/01/05 09:52:38;;;;;;;36.97;19.30;;;;;;;0.79;98.86;101114.53;5005394;28;20127;-82
2021/01/05 09:55:08;;;;;;;41.10;19.70;;;;;;;0.71;99.29;101108.59;4994108;28;20052;-81
2021/01/05 09:57:37;;;;;;;43.10;19.98;;;;;;;0.91;98.59;101119.59;4990811;28;20052;-80
2021/01/05 10:00:08;;;;;;;44.45;19.75;;;;;;;0.76;99.69;101112.84;4993046;28;20708;-82
2021/01/05 10:02:35;;;;;;;42.03;20.02;;;;;;;0.75;100.00;101107.69;4984751;28;20496;-82
2021/01/05 10:05:02;;;;;;;36.42;20.42;;;;;;;0.81;100.00;101102.44;4984722;28;20033;-81
2021/01/05 10:07:28;;;;;;;40.10;19.83;;;;;;;0.85;99.82;101103.25;4976471;28;20478;-83
2021/01/05 10:09:57;;;;;;;40.47;18.92;;;;;;;0.78;99.98;101099.88;5009501;28;20049;-80
2021/01/05 10:12:25;;;;;;;41.75;20.38;;;;;;;0.89;99.92;101104.94;4994740;28;20069;-80
2021/01/05 10:14:53;;;;;;;35.78;19.73;;;;;;;0.86;99.82;101105.00;4992378;28;20066;-81
2021/01/05 10:17:24;;;;;;;36.40;19.50;;;;;;;0.78;99.99;101099.03;5001804;28;20062;-81
2021/01/05 10:19:51;;;;;;;51.67;20.65;;;;;;;0.75;100.00;101099.91;4979217;28;20092;-80
2021/01/05 10:22:18;;;;;;;40.65;22.15;;;;;;;0.78;100.00;101101.63;4993259;28;20472;-79
2021/01/05 10:24:45;;;;;;;42.90;20.05;;;;;;;0.91;100.00;101098.00;4977533;28;20041;-81
2021/01/05 10:27:12;;;;;;;38.95;19.45;;;;;;;1.03;99.68;101095.25;5013780;28;20564;-80
2021/01/05 10:29:40;;;;;;;42.80;19.08;;;;;;;1.00;99.60;101093.56;4982661;28;20465;-82
2021/01/05 10:32:07;;;;;;;41.88;19.95;;;;;;;0.94;99.95;101095.38;4999921;28;20530;-82
2021/01/05 10:34:50;;;;;;;42.15;18.27;;;;;;;1.01;99.15;101089.25;4999108;28;20089;-81
2021/01/05 10:37:18;;;;;;;39.63;19.02;;;;;;;1.02;99.76;101089.22;4982457;28;20240;-81
2021/01/05 10:40:10;;;;;;;37.88;18.13;;;;;;;1.14;99.56;101083.03;4990635;28;20046;-79
2021/01/05 10:42:46;;;;;;;36.00;17.73;;;;;;;1.09;98.94;101082.22;5006197;28;20049;-82
2021/01/05 10:45:22;;;;;;;39.40;17.48;;;;;;;0.89;99.57;101090.22;4974814;28;20066;-81
2021/01/05 10:47:57;;;;;;;44.03;17.35;;;;;;;0.99;99.54;101078.00;4993958;28;20136;-81
2021/01/05 10:50:31;;;;;;;38.28;18.08;;;;;;;1.11;99.13;101087.38;5014048;28;20147;-80
2021/01/05 10:53:03;;;;;;;33.95;18.35;;;;;;;1.06;99.00;101086.59;5015660;28;20064;-85
2021/01/05 10:55:34;;;;;;;46.03;19.10;;;;;;;1.08;99.80;101074.44;5003035;28;20053;-83
2021/01/05 10:58:05;;;;;;;36.53;19.50;;;;;;;1.07;99.26;101081.38;4989483;28;20046;-82
2021/01/05 11:00:34;;;;;;;39.80;18.45;;;;;;;1.07;99.34;101083.13;5006244;28;20098;-81
2021/01/05 11:03:07;;;;;;;40.03;18.98;;;;;;;1.15;98.84;101076.09;4974467;28;20485;-85
2021/01/05 11:05:43;;;;;;;38.70;19.90;;;;;;;1.22;98.42;101064.78;5019076;28;20504;-83
2021/01/05 11:08:18;;;;;;;38.25;18.88;;;;;;;1.09;98.87;101065.81;5012080;28;20060;-86
2021/01/05 11:11:00;;;;;;;37.30;18.10;;;;;;;1.14;98.81;101066.63;5017358;28;20064;-86
2021/01/05 11:13:37;;;;;;;39.35;17.20;;;;;;;1.04;98.84;101068.47;5007981;28;20073;-85
2021/01/05 11:16:09;;;;;;;37.20;18.73;;;;;;;1.04;98.82;101068.47;5003431;28;20053;-85
2021/01/05 11:18:44;;;;;;;37.17;17.83;;;;;;;1.08;99.25;101066.69;5000936;28;20061;-82
2021/01/05 11:21:33;;;;;;;40.05;19.00;;;;;;;0.98;99.75;101056.41;5012402;28;20057;-83
2021/01/05 11:23:59;;;;;;;34.20;17.88;;;;;;;0.87;99.94;101052.25;4979129;28;20507;-83
2021/01/05 11:26:26;;;;;;;45.90;20.45;;;;;;;1.05;99.51;101048.59;5004594;28;20065;-85
2021/01/05 11:28:53;;;;;;;37.40;19.48;;;;;;;0.94;99.91;101046.97;4988148;28;20045;-85
2021/01/05 11:31:21;;;;;;;41.20;21.13;;;;;;;0.96;99.88;101045.22;4984830;28;20046;-83
2021/01/05 11:33:52;;;;;;;43.25;19.88;;;;;;;0.94;99.87;101046.09;4998807;28;20062;-81